createdAt,value
2022-10-02T00:02:24.810Z,11.80
2022-10-02T00:04:56.463Z,11.86
2022-10-02T00:07:29.598Z,11.93
2022-10-02T00:10:00.843Z,11.79
2022-10-02T00:12:32.037Z,11.75
2022-10-02T00:15:04.291Z,11.73
2022-10-02T00:17:38.443Z,11.70
2022-10-02T00:20:13.911Z,11.68
2022-10-02T00:22:52.700Z,11.78
2022-10-02T00:25:27.540Z,11.88
2022-10-02T00:28:10.211Z,11.93
2022-10-02T00:31:00.594Z,11.92
2022-10-02T00:33:35.171Z,12.05
2022-10-02T00:36:13.804Z,12.03
2022-10-02T00:39:03.516Z,11.97
2022-10-02T00:42:03.858Z,11.90
2022-10-02T00:44:48.696Z,11.93
2022-10-02T00:47:27.916Z,11.75
2022-10-02T00:50:18.001Z,11.81
2022-10-02T00:52:55.036Z,11.85
2022-10-02T00:55:37.184Z,12.05
2022-10-02T00:58:23.481Z,11.92
2022-10-02T01:01:03.820Z,11.93
2022-10-02T01:03:38.735Z,11.94
2022-10-02T01:06:07.190Z,11.96
2022-10-02T01:08:35.590Z,11.95
2022-10-02T01:11:03.608Z,12.04
2022-10-02T01:13:32.568Z,11.94
2022-10-02T01:16:01.961Z,11.88
2022-10-02T01:18:31.805Z,11.84
2022-10-02T01:21:04.948Z,11.82
2022-10-02T01:23:40.375Z,11.75
2022-10-02T01:26:09.351Z,11.85
2022-10-02T01:28:36.965Z,11.69
2022-10-02T01:31:08.528Z,11.73
2022-10-02T01:33:37.356Z,11.74
2022-10-02T01:36:05.440Z,11.68
2022-10-02T01:38:33.175Z,11.67
2022-10-02T01:41:00.629Z,11.84
2022-10-02T01:43:32.876Z,11.73
2022-10-02T01:46:11.574Z,11.67
2022-10-02T01:48:46.700Z,11.62
2022-10-02T01:51:27.944Z,11.61
2022-10-02T01:54:06.088Z,11.52
2022-10-02T01:56:44.225Z,11.53
2022-10-02T01:59:21.512Z,11.76
2022-10-02T02:02:01.372Z,11.63
2022-10-02T02:04:34.904Z,11.65
2022-10-02T02:07:12.152Z,11.68
2022-10-02T02:09:43.562Z,11.74
2022-10-02T02:12:15.151Z,11.81
2022-10-02T02:14:48.583Z,11.96
2022-10-02T02:17:21.411Z,11.91
2022-10-02T02:19:53.372Z,11.87
2022-10-02T02:22:24.823Z,11.83
2022-10-02T02:24:56.306Z,11.96
2022-10-02T02:27:27.451Z,11.84
2022-10-02T02:30:01.118Z,11.79
2022-10-02T02:32:32.117Z,11.84
2022-10-02T02:35:05.136Z,11.76
2022-10-02T02:37:35.759Z,11.70
2022-10-02T02:40:07.949Z,11.68
2022-10-02T02:42:42.740Z,11.76
2022-10-02T02:45:17.418Z,11.78
2022-10-02T02:47:49.913Z,11.90
2022-10-02T02:50:23.207Z,11.75
2022-10-02T02:52:57.395Z,11.86
2022-10-02T02:55:29.768Z,11.74
2022-10-02T02:58:01.655Z,11.56
2022-10-02T03:00:30.722Z,11.44
2022-10-02T03:02:58.444Z,11.52
2022-10-02T03:05:27.012Z,11.44
2022-10-02T03:07:56.871Z,11.47
2022-10-02T03:10:43.513Z,11.61
2022-10-02T03:13:24.707Z,11.67
2022-10-02T03:16:05.060Z,11.65
2022-10-02T03:18:54.738Z,11.74
2022-10-02T03:21:30.122Z,11.77
2022-10-02T03:24:05.942Z,11.82
2022-10-02T03:26:40.025Z,11.95
2022-10-02T03:29:13.934Z,12.13
2022-10-02T03:31:44.059Z,12.22
2022-10-02T03:34:12.733Z,12.24
2022-10-02T03:36:40.444Z,12.33
2022-10-02T03:39:26.011Z,12.38
2022-10-02T03:41:55.020Z,12.41
2022-10-02T03:44:22.486Z,12.40
2022-10-02T03:46:51.745Z,12.36
2022-10-02T03:49:19.249Z,12.32
2022-10-02T03:51:46.679Z,12.51
2022-10-02T03:54:17.749Z,12.59
2022-10-02T03:56:53.120Z,12.51
2022-10-02T03:59:34.342Z,12.43
2022-10-02T04:02:08.202Z,12.34
2022-10-02T04:04:45.523Z,12.31
2022-10-02T04:07:20.194Z,12.16
2022-10-02T04:09:56.156Z,12.09
2022-10-02T04:12:29.133Z,11.97
2022-10-02T04:15:01.280Z,11.98
2022-10-02T04:17:36.111Z,11.74
2022-10-02T04:20:10.742Z,11.69
2022-10-02T04:22:42.409Z,11.59
2022-10-02T04:25:16.361Z,11.64
2022-10-02T04:27:49.310Z,11.48
2022-10-02T04:30:19.130Z,11.73
2022-10-02T04:32:49.291Z,11.63
2022-10-02T04:35:18.556Z,11.51
2022-10-02T04:37:59.709Z,11.59
2022-10-02T04:40:50.521Z,11.56
2022-10-02T04:43:30.985Z,11.50
2022-10-02T04:46:09.890Z,11.69
2022-10-02T04:49:07.422Z,11.47
2022-10-02T04:51:50.955Z,11.50
2022-10-02T04:54:34.168Z,11.58
2022-10-02T04:57:17.913Z,11.55
2022-10-02T05:00:03.433Z,11.42
2022-10-02T05:02:46.883Z,11.43
2022-10-02T05:05:30.703Z,11.50
2022-10-02T05:08:12.792Z,11.54
2022-10-02T05:10:54.799Z,11.56
2022-10-02T05:13:39.304Z,11.39
2022-10-02T05:16:21.424Z,11.31
2022-10-02T05:19:08.262Z,11.17
2022-10-02T05:22:11.939Z,11.22
2022-10-02T05:24:47.703Z,11.18
2022-10-02T05:27:38.895Z,11.09
2022-10-02T05:30:09.516Z,11.34
2022-10-02T05:32:55.409Z,11.51
2022-10-02T05:35:36.878Z,11.64
2022-10-02T05:38:19.274Z,11.60
2022-10-02T05:40:53.960Z,11.59
2022-10-02T05:43:32.708Z,11.69
2022-10-02T05:46:10.373Z,11.70
2022-10-02T05:48:42.577Z,11.69
2022-10-02T05:51:17.167Z,11.67
2022-10-02T05:53:50.182Z,11.72
2022-10-02T05:56:23.058Z,11.85
2022-10-02T05:58:54.099Z,11.95
2022-10-02T06:01:26.900Z,12.51
2022-10-02T06:04:01.421Z,12.35
2022-10-02T06:06:35.036Z,12.53
2022-10-02T06:09:16.535Z,12.63
2022-10-02T06:11:50.251Z,12.86
2022-10-02T06:14:24.380Z,12.68
2022-10-02T06:16:57.054Z,12.61
2022-10-02T06:19:29.802Z,12.65
2022-10-02T06:22:01.675Z,12.62
2022-10-02T06:24:37.260Z,12.44
2022-10-02T06:27:11.291Z,12.30
2022-10-02T06:29:44.394Z,12.25
2022-10-02T06:32:20.166Z,12.30
2022-10-02T06:34:48.301Z,12.47
2022-10-02T06:37:37.907Z,12.68
2022-10-02T06:40:38.235Z,12.87
2022-10-02T06:43:13.176Z,12.90
2022-10-02T06:45:47.636Z,13.14
2022-10-02T06:48:25.404Z,13.28
2022-10-02T06:51:06.004Z,13.49
2022-10-02T06:53:45.674Z,13.54
2022-10-02T06:56:29.600Z,13.63
2022-10-02T06:59:11.062Z,13.65
2022-10-02T07:01:54.982Z,13.87
2022-10-02T07:04:50.298Z,13.98
2022-10-02T07:07:31.773Z,14.11
2022-10-02T07:10:16.161Z,14.26
2022-10-02T07:13:12.571Z,14.41
2022-10-02T07:15:57.861Z,14.61
2022-10-02T07:18:37.959Z,14.81
2022-10-02T07:21:11.052Z,14.88
2022-10-02T07:23:47.976Z,14.90
2022-10-02T07:26:48.345Z,14.91
2022-10-02T07:29:34.836Z,14.95
2022-10-02T07:32:24.894Z,15.06
2022-10-02T07:35:03.038Z,15.25
2022-10-02T07:37:41.171Z,15.36
2022-10-02T07:40:29.131Z,15.58
2022-10-02T07:43:12.531Z,15.67
2022-10-02T07:45:42.886Z,15.69
2022-10-02T07:48:29.447Z,15.79
2022-10-02T07:51:30.410Z,15.90
2022-10-02T07:54:09.250Z,16.22
2022-10-02T07:56:38.142Z,16.18
2022-10-02T07:59:12.793Z,15.83
2022-10-02T08:01:43.758Z,16.11
2022-10-02T08:04:15.439Z,16.05
2022-10-02T08:07:24.178Z,16.12
2022-10-02T08:09:54.352Z,16.35
2022-10-02T08:12:28.911Z,16.36
2022-10-02T08:14:57.575Z,16.53
2022-10-02T08:17:32.896Z,16.53
2022-10-02T08:20:06.123Z,16.74
2022-10-02T08:22:38.506Z,16.71
2022-10-02T08:25:11.297Z,16.65
2022-10-02T08:27:51.007Z,16.67
2022-10-02T08:30:18.606Z,17.07
2022-10-02T08:32:47.910Z,16.91
2022-10-02T08:35:18.411Z,16.99
2022-10-02T08:38:05.016Z,17.21
2022-10-02T08:40:54.794Z,17.53
2022-10-02T08:44:06.174Z,17.64
2022-10-02T08:47:02.305Z,17.68
2022-10-02T08:50:15.670Z,18.04
2022-10-02T08:53:29.518Z,17.82
2022-10-02T08:56:19.135Z,17.66
2022-10-02T08:59:18.874Z,17.64
2022-10-02T09:02:12.974Z,17.50
2022-10-02T09:05:13.495Z,17.21
2022-10-02T09:08:33.172Z,17.79
2022-10-02T09:11:29.823Z,17.28
2022-10-02T09:14:19.813Z,17.14
2022-10-02T09:17:09.103Z,16.98
2022-10-02T09:19:56.066Z,17.21
2022-10-02T09:22:48.619Z,17.32
2022-10-02T09:25:34.048Z,17.84
2022-10-02T09:28:49.687Z,18.19
2022-10-02T09:31:43.667Z,17.63
2022-10-02T09:34:48.484Z,17.62
2022-10-02T09:37:37.293Z,17.52
2022-10-02T09:40:26.808Z,17.56
2022-10-02T09:43:26.388Z,18.38
2022-10-02T09:46:23.264Z,18.60
2022-10-02T09:49:28.815Z,18.16
2022-10-02T09:52:26.156Z,17.64
2022-10-02T09:55:42.915Z,16.83
2022-10-02T09:58:45.393Z,16.01
2022-10-02T10:01:40.698Z,16.14
2022-10-02T10:04:53.741Z,16.17
2022-10-02T10:08:00.127Z,16.24
2022-10-02T10:11:05.521Z,16.62
2022-10-02T10:14:00.431Z,16.49
2022-10-02T10:16:51.690Z,16.92
2022-10-02T10:19:59.414Z,16.62
2022-10-02T10:22:57.719Z,16.47
2022-10-02T10:25:38.570Z,16.92
2022-10-02T10:28:40.114Z,17.04
2022-10-02T10:31:43.663Z,17.52
2022-10-02T10:34:50.545Z,17.44
2022-10-02T10:37:59.680Z,17.48
2022-10-02T10:40:39.360Z,17.65
2022-10-02T10:43:27.339Z,17.39
2022-10-02T10:46:14.831Z,17.44
2022-10-02T10:49:05.792Z,17.65
2022-10-02T10:51:35.225Z,17.86
2022-10-02T10:54:46.999Z,17.64
2022-10-02T10:57:26.543Z,17.65
2022-10-02T11:00:21.761Z,17.71
2022-10-02T11:03:41.779Z,17.69
2022-10-02T11:06:31.015Z,17.96
2022-10-02T11:09:27.443Z,18.01
2022-10-02T11:12:28.971Z,17.71
2022-10-02T11:15:16.123Z,17.66
2022-10-02T11:18:06.372Z,17.61
2022-10-02T11:20:47.715Z,17.48
2022-10-02T11:23:42.402Z,17.32
2022-10-02T11:26:23.766Z,17.45
2022-10-02T11:29:25.790Z,17.44
2022-10-02T11:32:10.114Z,17.39
2022-10-02T11:34:51.209Z,17.60
2022-10-02T11:37:38.653Z,17.66
2022-10-02T11:40:22.828Z,17.43
2022-10-02T11:43:13.680Z,17.61
2022-10-02T11:46:03.320Z,17.65
2022-10-02T11:49:12.881Z,17.36
2022-10-02T11:51:56.299Z,17.30
2022-10-02T11:54:40.122Z,17.51
2022-10-02T11:57:22.511Z,17.51
2022-10-02T12:00:09.187Z,17.61
2022-10-02T12:02:42.835Z,17.36
2022-10-02T12:05:24.250Z,17.29
2022-10-02T12:08:01.530Z,17.18
2022-10-02T12:10:41.969Z,17.05
2022-10-02T12:13:40.927Z,17.05
2022-10-02T12:16:20.864Z,17.17
2022-10-02T12:19:06.243Z,17.31
2022-10-02T12:22:12.072Z,17.44
2022-10-02T12:25:09.456Z,17.19
2022-10-02T12:27:51.899Z,17.15
2022-10-02T12:30:24.020Z,17.17
2022-10-02T12:33:11.517Z,17.13
2022-10-02T12:36:00.217Z,17.29
2022-10-02T12:38:42.661Z,17.34
2022-10-02T12:41:34.192Z,17.32
2022-10-02T12:44:25.226Z,17.32
2022-10-02T12:47:26.212Z,17.34
2022-10-02T12:50:05.699Z,17.54
2022-10-02T12:53:13.075Z,17.30
2022-10-02T12:56:07.362Z,17.06
2022-10-02T12:58:54.155Z,16.93
2022-10-02T13:01:53.940Z,17.17
2022-10-02T13:04:45.832Z,17.34
2022-10-02T13:07:55.918Z,17.40
2022-10-02T13:10:25.574Z,17.46
2022-10-02T13:13:07.259Z,17.50
2022-10-02T13:15:45.142Z,17.21
2022-10-02T13:18:33.071Z,17.05
2022-10-02T13:21:11.751Z,16.98
2022-10-02T13:23:47.652Z,17.15
2022-10-02T13:26:25.052Z,17.38
2022-10-02T13:29:14.019Z,17.72
2022-10-02T13:31:58.697Z,18.04
2022-10-02T13:34:46.644Z,17.75
2022-10-02T13:37:23.766Z,17.67
2022-10-02T13:40:13.863Z,17.43
2022-10-02T13:42:55.070Z,17.23
2022-10-02T13:45:29.399Z,17.04
2022-10-02T13:48:03.902Z,16.94
2022-10-02T13:50:43.220Z,16.85
2022-10-02T13:53:32.122Z,16.80
2022-10-02T13:56:14.679Z,16.86
2022-10-02T13:58:59.530Z,16.83
2022-10-02T14:01:37.953Z,17.06
2022-10-02T14:04:19.588Z,17.10
2022-10-02T14:06:52.209Z,17.16
2022-10-02T14:09:32.318Z,17.22
2022-10-02T14:12:21.748Z,17.52
2022-10-02T14:15:20.152Z,17.50
2022-10-02T14:18:00.947Z,17.46
2022-10-02T14:20:37.780Z,17.03
2022-10-02T14:23:34.967Z,17.19
2022-10-02T14:26:13.121Z,17.23
2022-10-02T14:29:08.901Z,17.12
2022-10-02T14:31:53.831Z,17.07
2022-10-02T14:34:50.585Z,16.91
2022-10-02T14:37:38.822Z,16.87
2022-10-02T14:40:13.676Z,16.74
2022-10-02T14:42:59.491Z,16.80
2022-10-02T14:45:42.431Z,15.79
2022-10-02T14:48:26.335Z,15.46
2022-10-02T14:51:08.715Z,15.40
2022-10-02T14:53:50.324Z,15.63
2022-10-02T14:56:51.996Z,15.93
2022-10-02T14:59:55.746Z,15.88
2022-10-02T15:02:54.379Z,15.71
2022-10-02T15:05:39.873Z,15.73
2022-10-02T15:08:14.363Z,15.68
2022-10-02T15:10:42.494Z,15.95
2022-10-02T15:13:24.517Z,16.07
2022-10-02T15:16:10.977Z,16.02
2022-10-02T15:18:44.224Z,16.06
2022-10-02T15:21:24.256Z,15.98
2022-10-02T15:23:57.600Z,16.09
2022-10-02T15:26:46.908Z,16.13
2022-10-02T15:29:25.908Z,16.16
2022-10-02T15:32:28.608Z,16.00
2022-10-02T15:35:10.270Z,16.11
2022-10-02T15:37:47.256Z,16.12
2022-10-02T15:40:27.063Z,16.05
2022-10-02T15:42:58.514Z,15.93
2022-10-02T15:45:55.357Z,16.01
2022-10-02T15:48:38.780Z,15.91
2022-10-02T15:51:20.071Z,16.01
2022-10-02T15:53:58.406Z,15.90
2022-10-02T15:56:47.188Z,15.79
2022-10-02T15:59:30.088Z,15.93
2022-10-02T16:02:11.557Z,15.86
2022-10-02T16:04:47.481Z,15.71
2022-10-02T16:07:36.426Z,15.65
2022-10-02T16:10:18.432Z,15.58
2022-10-02T16:13:18.182Z,15.41
2022-10-02T16:15:52.881Z,15.26
2022-10-02T16:18:45.395Z,15.21
2022-10-02T16:21:34.059Z,15.35
2022-10-02T16:24:38.352Z,15.25
2022-10-02T16:27:19.491Z,15.08
2022-10-02T16:30:02.653Z,15.11
2022-10-02T16:32:40.042Z,14.95
2022-10-02T16:35:45.882Z,14.99
2022-10-02T16:38:19.147Z,14.85
2022-10-02T16:40:57.175Z,14.78
2022-10-02T16:43:48.465Z,14.75
2022-10-02T16:46:21.053Z,14.80
2022-10-02T16:48:57.009Z,14.63
2022-10-02T16:51:39.917Z,14.55
2022-10-02T16:54:18.040Z,14.69
2022-10-02T16:56:53.030Z,14.81
2022-10-02T16:59:26.478Z,14.72
2022-10-02T17:02:16.982Z,14.82
2022-10-02T17:04:58.937Z,14.78
2022-10-02T17:07:33.355Z,14.86
2022-10-02T17:10:08.973Z,14.95
2022-10-02T17:12:48.724Z,14.85
2022-10-02T17:15:22.373Z,14.57
2022-10-02T17:18:06.021Z,14.24
2022-10-02T17:20:41.535Z,14.27
2022-10-02T17:23:19.154Z,14.04
2022-10-02T17:25:53.586Z,13.97
2022-10-02T17:28:30.766Z,13.88
2022-10-02T17:31:17.682Z,13.88
2022-10-02T17:33:47.792Z,14.01
2022-10-02T17:36:21.373Z,13.95
2022-10-02T17:39:04.171Z,14.06
2022-10-02T17:41:43.370Z,14.09
2022-10-02T17:44:24.545Z,13.99
2022-10-02T17:47:23.494Z,14.16
2022-10-02T17:50:01.841Z,14.16
2022-10-02T17:52:56.791Z,13.92
2022-10-02T17:55:50.547Z,13.77
2022-10-02T17:58:31.142Z,13.73
2022-10-02T18:01:10.773Z,13.83
2022-10-02T18:03:55.967Z,13.77
2022-10-02T18:06:32.322Z,13.74
2022-10-02T18:09:28.389Z,13.68
2022-10-02T18:12:15.504Z,13.66
2022-10-02T18:15:16.844Z,13.62
2022-10-02T18:17:57.479Z,13.68
2022-10-02T18:20:35.210Z,13.58
2022-10-02T18:23:16.366Z,13.43
2022-10-02T18:25:54.113Z,13.48
2022-10-02T18:28:46.114Z,13.65
2022-10-02T18:31:53.992Z,13.70
2022-10-02T18:34:46.326Z,13.53
2022-10-02T18:37:28.573Z,13.64
2022-10-02T18:40:07.563Z,13.40
2022-10-02T18:42:46.123Z,13.54
2022-10-02T18:45:32.804Z,13.41
2022-10-02T18:48:19.820Z,13.45
2022-10-02T18:51:16.476Z,13.32
2022-10-02T18:53:58.514Z,13.38
2022-10-02T18:56:46.988Z,13.25
2022-10-02T18:59:25.557Z,13.33
2022-10-02T19:02:03.019Z,13.37
2022-10-02T19:05:00.026Z,13.28
2022-10-02T19:07:38.462Z,13.32
2022-10-02T19:10:29.050Z,13.16
2022-10-02T19:13:01.237Z,13.16
2022-10-02T19:15:31.870Z,13.37
2022-10-02T19:18:05.479Z,13.20
2022-10-02T19:20:55.342Z,12.99
2022-10-02T19:23:38.531Z,13.04
2022-10-02T19:26:16.842Z,12.93
2022-10-02T19:28:48.226Z,12.87
2022-10-02T19:31:22.355Z,12.82
2022-10-02T19:33:54.588Z,12.90
2022-10-02T19:36:24.962Z,12.87
2022-10-02T19:38:57.016Z,12.64
2022-10-02T19:41:24.668Z,12.86
2022-10-02T19:43:57.139Z,12.82
2022-10-02T19:46:35.644Z,12.89
2022-10-02T19:49:04.362Z,12.79
2022-10-02T19:51:43.322Z,12.74
2022-10-02T19:54:16.725Z,12.92
2022-10-02T19:56:45.728Z,12.81
2022-10-02T19:59:18.981Z,12.65
2022-10-02T20:01:51.436Z,12.64
2022-10-02T20:04:21.419Z,12.63
2022-10-02T20:06:52.976Z,12.73
2022-10-02T20:09:28.272Z,12.83
2022-10-02T20:11:59.382Z,12.68
2022-10-02T20:14:32.423Z,12.72
2022-10-02T20:17:11.211Z,12.56
2022-10-02T20:19:45.096Z,12.64
2022-10-02T20:22:23.931Z,12.67
2022-10-02T20:24:58.170Z,12.66
2022-10-02T20:27:36.784Z,12.90
2022-10-02T20:30:08.112Z,12.89
2022-10-02T20:32:39.415Z,13.00
2022-10-02T20:35:14.350Z,13.06
2022-10-02T20:37:43.914Z,12.91
2022-10-02T20:40:18.344Z,12.96
2022-10-02T20:42:53.235Z,12.99
2022-10-02T21:02:34.604Z,12.62
2022-10-02T21:05:33.023Z,12.69
2022-10-02T21:08:17.840Z,12.77
2022-10-02T21:11:13.337Z,12.76
2022-10-02T21:14:09.734Z,12.86
2022-10-02T21:17:14.001Z,12.74
2022-10-02T21:20:33.139Z,12.77
2022-10-02T21:23:32.847Z,12.69
2022-10-02T21:26:45.869Z,12.72
2022-10-02T21:29:42.764Z,12.62
2022-10-02T21:32:25.011Z,12.66
2022-10-02T21:35:07.256Z,12.65
2022-10-02T21:37:47.376Z,12.58
2022-10-02T21:40:43.607Z,12.48
2022-10-02T21:43:55.635Z,12.46
2022-10-02T21:46:58.660Z,12.46
2022-10-02T21:50:03.289Z,12.49
2022-10-02T21:53:11.158Z,12.53
2022-10-02T21:56:01.806Z,12.68
2022-10-02T21:58:59.030Z,12.80
2022-10-02T22:02:07.918Z,12.70
2022-10-02T22:05:00.162Z,12.67
2022-10-02T22:07:36.137Z,12.64
2022-10-02T22:10:17.622Z,12.39
2022-10-02T22:12:56.377Z,12.35
2022-10-02T22:15:31.202Z,12.30
2022-10-02T22:18:02.672Z,12.36
2022-10-02T22:20:51.733Z,12.31
2022-10-02T22:23:52.506Z,12.33
2022-10-02T22:26:37.120Z,12.32
2022-10-02T22:29:10.770Z,12.43
2022-10-02T22:32:20.804Z,12.27
2022-10-02T22:34:57.615Z,12.26
2022-10-02T22:37:47.883Z,12.32
2022-10-02T22:40:20.390Z,12.26
2022-10-02T22:42:54.545Z,12.49
2022-10-02T22:45:28.402Z,12.38
2022-10-02T22:48:01.237Z,12.36
2022-10-02T22:50:36.850Z,12.39
2022-10-02T22:53:15.967Z,12.27
2022-10-02T22:55:50.937Z,12.24
2022-10-02T22:58:30.166Z,12.17
2022-10-02T23:01:03.752Z,12.31
2022-10-02T23:03:39.155Z,12.15
2022-10-02T23:06:14.942Z,12.13
2022-10-02T23:08:51.972Z,12.04
2022-10-02T23:11:24.431Z,11.92
2022-10-02T23:13:59.369Z,11.96
2022-10-02T23:16:35.057Z,11.81
2022-10-02T23:19:13.203Z,11.99
2022-10-02T23:21:47.742Z,11.82
2022-10-02T23:24:23.243Z,11.85
2022-10-02T23:26:55.442Z,11.71
2022-10-02T23:29:39.142Z,11.83
2022-10-02T23:32:18.911Z,11.96
2022-10-02T23:34:52.128Z,11.77
2022-10-02T23:37:25.306Z,11.91
2022-10-02T23:39:58.866Z,11.91
2022-10-02T23:42:34.549Z,11.84
2022-10-02T23:45:11.426Z,11.81
2022-10-02T23:47:54.665Z,11.81
2022-10-02T23:50:25.111Z,11.80
2022-10-02T23:53:12.056Z,11.90
2022-10-02T23:55:56.730Z,11.79
2022-10-02T23:58:34.334Z,11.84
